sensor_id;sensor_type;location;lat;lon;timestamp;P1;durP1;ratioP1;P2;durP2;ratioP2
56171;SDS011;42052;41.634;-0.946;2023-09-18T00:00:26;2.40;;;1.25;;
56171;SDS011;42052;41.634;-0.946;2023-09-18T00:02:51;2.90;;;1.17;;
56171;SDS011;42052;41.634;-0.946;2023-09-18T00:05:17;3.53;;;1.20;;
56171;SDS011;42052;41.634;-0.946;2023-09-18T00:07:43;2.50;;;1.23;;
56171;SDS011;42052;41.634;-0.946;2023-09-18T00:10:10;2.67;;;0.93;;
56171;SDS011;42052;41.634;-0.946;2023-09-18T00:12:37;1.98;;;1.08;;
56171;SDS011;42052;41.634;-0.946;2023-09-18T00:15:04;2.42;;;1.00;;
56171;SDS011;42052;41.634;-0.946;2023-09-18T00:17:31;1.67;;;0.90;;
56171;SDS011;42052;41.634;-0.946;2023-09-18T00:19:57;2.17;;;1.05;;
56171;SDS011;42052;41.634;-0.946;2023-09-18T00:22:22;3.95;;;0.93;;
56171;SDS011;42052;41.634;-0.946;2023-09-18T00:24:54;1.45;;;1.00;;
56171;SDS011;42052;41.634;-0.946;2023-09-18T00:27:20;2.42;;;0.80;;
56171;SDS011;42052;41.634;-0.946;2023-09-18T00:29:46;2.85;;;1.10;;
56171;SDS011;42052;41.634;-0.946;2023-09-18T00:32:11;2.00;;;0.90;;
56171;SDS011;42052;41.634;-0.946;2023-09-18T00:34:37;3.15;;;0.93;;
56171;SDS011;42052;41.634;-0.946;2023-09-18T00:37:07;2.72;;;1.00;;
56171;SDS011;42052;41.634;-0.946;2023-09-18T00:39:33;1.63;;;1.00;;
56171;SDS011;42052;41.634;-0.946;2023-09-18T00:41:59;5.72;;;1.48;;
56171;SDS011;42052;41.634;-0.946;2023-09-18T00:44:24;1.27;;;1.00;;
56171;SDS011;42052;41.634;-0.946;2023-09-18T00:46:51;2.47;;;1.23;;
56171;SDS011;42052;41.634;-0.946;2023-09-18T00:49:19;2.72;;;1.08;;
56171;SDS011;42052;41.634;-0.946;2023-09-18T00:51:46;2.25;;;0.90;;
56171;SDS011;42052;41.634;-0.946;2023-09-18T00:54:12;2.05;;;1.13;;
56171;SDS011;42052;41.634;-0.946;2023-09-18T00:56:41;1.75;;;1.00;;
56171;SDS011;42052;41.634;-0.946;2023-09-18T00:59:07;3.10;;;1.10;;
56171;SDS011;42052;41.634;-0.946;2023-09-18T01:01:34;1.75;;;1.00;;
56171;SDS011;42052;41.634;-0.946;2023-09-18T01:04:00;2.83;;;1.20;;
56171;SDS011;42052;41.634;-0.946;2023-09-18T01:06:26;2.47;;;1.20;;
56171;SDS011;42052;41.634;-0.946;2023-09-18T01:08:56;3.20;;;1.00;;
56171;SDS011;42052;41.634;-0.946;2023-09-18T01:14:00;1.83;;;1.02;;
56171;SDS011;42052;41.634;-0.946;2023-09-18T01:19:34;1.88;;;0.90;;
56171;SDS011;42052;41.634;-0.946;2023-09-18T01:22:00;1.25;;;0.90;;
56171;SDS011;42052;41.634;-0.946;2023-09-18T01:24:28;2.75;;;1.20;;
56171;SDS011;42052;41.634;-0.946;2023-09-18T01:26:53;1.70;;;1.10;;
56171;SDS011;42052;41.634;-0.946;2023-09-18T01:29:19;1.70;;;0.98;;
56171;SDS011;42052;41.634;-0.946;2023-09-18T01:31:45;0.98;;;0.80;;
56171;SDS011;42052;41.634;-0.946;2023-09-18T01:34:14;1.65;;;1.00;;
56171;SDS011;42052;41.634;-0.946;2023-09-18T01:36:42;3.75;;;0.95;;
56171;SDS011;42052;41.634;-0.946;2023-09-18T01:39:10;4.43;;;1.10;;
56171;SDS011;42052;41.634;-0.946;2023-09-18T01:41:37;1.73;;;1.00;;
56171;SDS011;42052;41.634;-0.946;2023-09-18T01:44:03;4.00;;;1.00;;
56171;SDS011;42052;41.634;-0.946;2023-09-18T01:46:30;2.78;;;1.00;;
56171;SDS011;42052;41.634;-0.946;2023-09-18T01:49:01;4.53;;;1.05;;
56171;SDS011;42052;41.634;-0.946;2023-09-18T01:51:28;2.08;;;1.23;;
56171;SDS011;42052;41.634;-0.946;2023-09-18T01:53:55;3.13;;;1.00;;
56171;SDS011;42052;41.634;-0.946;2023-09-18T01:56:21;2.13;;;1.27;;
56171;SDS011;42052;41.634;-0.946;2023-09-18T01:58:48;2.53;;;1.00;;
56171;SDS011;42052;41.634;-0.946;2023-09-18T02:01:14;1.27;;;0.75;;
56171;SDS011;42052;41.634;-0.946;2023-09-18T02:03:40;2.30;;;1.30;;
56171;SDS011;42052;41.634;-0.946;2023-09-18T02:06:06;1.27;;;0.80;;
56171;SDS011;42052;41.634;-0.946;2023-09-18T02:08:33;2.85;;;1.10;;
56171;SDS011;42052;41.634;-0.946;2023-09-18T02:10:59;1.52;;;1.00;;
56171;SDS011;42052;41.634;-0.946;2023-09-18T02:13:25;3.35;;;1.30;;
56171;SDS011;42052;41.634;-0.946;2023-09-18T02:15:51;1.92;;;0.90;;
56171;SDS011;42052;41.634;-0.946;2023-09-18T02:18:19;2.40;;;1.10;;
56171;SDS011;42052;41.634;-0.946;2023-09-18T02:20:45;3.10;;;1.13;;
56171;SDS011;42052;41.634;-0.946;2023-09-18T02:23:14;2.97;;;1.13;;
56171;SDS011;42052;41.634;-0.946;2023-09-18T02:25:43;1.52;;;1.10;;
56171;SDS011;42052;41.634;-0.946;2023-09-18T02:28:09;1.65;;;1.10;;
56171;SDS011;42052;41.634;-0.946;2023-09-18T02:30:35;2.00;;;1.02;;
56171;SDS011;42052;41.634;-0.946;2023-09-18T02:33:01;1.85;;;1.13;;
56171;SDS011;42052;41.634;-0.946;2023-09-18T02:35:30;2.10;;;1.02;;
56171;SDS011;42052;41.634;-0.946;2023-09-18T02:37:55;1.90;;;1.00;;
56171;SDS011;42052;41.634;-0.946;2023-09-18T02:40:21;4.53;;;1.20;;
56171;SDS011;42052;41.634;-0.946;2023-09-18T02:42:47;2.70;;;1.13;;
56171;SDS011;42052;41.634;-0.946;2023-09-18T02:45:13;4.63;;;1.30;;
56171;SDS011;42052;41.634;-0.946;2023-09-18T02:47:38;2.33;;;1.10;;
56171;SDS011;42052;41.634;-0.946;2023-09-18T02:50:06;2.40;;;1.00;;
56171;SDS011;42052;41.634;-0.946;2023-09-18T02:52:32;1.88;;;1.00;;
56171;SDS011;42052;41.634;-0.946;2023-09-18T02:54:58;2.45;;;1.05;;
56171;SDS011;42052;41.634;-0.946;2023-09-18T02:57:24;2.88;;;1.10;;
56171;SDS011;42052;41.634;-0.946;2023-09-18T02:59:49;2.78;;;0.90;;
56171;SDS011;42052;41.634;-0.946;2023-09-18T03:02:15;3.80;;;1.00;;
56171;SDS011;42052;41.634;-0.946;2023-09-18T03:04:41;2.85;;;1.10;;
56171;SDS011;42052;41.634;-0.946;2023-09-18T03:07:07;2.45;;;1.05;;
56171;SDS011;42052;41.634;-0.946;2023-09-18T03:09:33;1.45;;;1.10;;
56171;SDS011;42052;41.634;-0.946;2023-09-18T03:12:00;3.03;;;1.40;;
56171;SDS011;42052;41.634;-0.946;2023-09-18T03:14:26;2.67;;;1.25;;
56171;SDS011;42052;41.634;-0.946;2023-09-18T03:16:53;1.50;;;0.82;;
56171;SDS011;42052;41.634;-0.946;2023-09-18T03:19:19;2.95;;;1.17;;
56171;SDS011;42052;41.634;-0.946;2023-09-18T03:21:46;1.85;;;1.17;;
56171;SDS011;42052;41.634;-0.946;2023-09-18T03:24:13;2.05;;;1.10;;
56171;SDS011;42052;41.634;-0.946;2023-09-18T03:26:39;2.67;;;1.20;;
56171;SDS011;42052;41.634;-0.946;2023-09-18T03:29:04;4.78;;;1.23;;
56171;SDS011;42052;41.634;-0.946;2023-09-18T03:31:30;2.05;;;1.15;;
56171;SDS011;42052;41.634;-0.946;2023-09-18T03:33:56;3.30;;;1.13;;
56171;SDS011;42052;41.634;-0.946;2023-09-18T03:36:22;2.05;;;1.10;;
56171;SDS011;42052;41.634;-0.946;2023-09-18T03:38:50;2.80;;;1.10;;
56171;SDS011;42052;41.634;-0.946;2023-09-18T03:41:16;1.77;;;1.08;;
56171;SDS011;42052;41.634;-0.946;2023-09-18T03:43:42;3.05;;;1.30;;
56171;SDS011;42052;41.634;-0.946;2023-09-18T03:46:08;1.92;;;1.08;;
56171;SDS011;42052;41.634;-0.946;2023-09-18T03:48:34;4.90;;;1.30;;
56171;SDS011;42052;41.634;-0.946;2023-09-18T03:51:03;3.90;;;1.52;;
56171;SDS011;42052;41.634;-0.946;2023-09-18T03:53:30;3.35;;;1.48;;
56171;SDS011;42052;41.634;-0.946;2023-09-18T03:55:58;2.45;;;1.13;;
56171;SDS011;42052;41.634;-0.946;2023-09-18T03:58:24;2.63;;;1.27;;
56171;SDS011;42052;41.634;-0.946;2023-09-18T04:00:50;6.50;;;1.27;;
56171;SDS011;42052;41.634;-0.946;2023-09-18T04:03:16;2.33;;;1.20;;
56171;SDS011;42052;41.634;-0.946;2023-09-18T04:05:42;3.80;;;1.33;;
56171;SDS011;42052;41.634;-0.946;2023-09-18T04:08:08;4.28;;;1.40;;
56171;SDS011;42052;41.634;-0.946;2023-09-18T04:10:34;2.22;;;1.30;;
56171;SDS011;42052;41.634;-0.946;2023-09-18T04:13:00;2.55;;;1.20;;
56171;SDS011;42052;41.634;-0.946;2023-09-18T04:15:25;3.70;;;1.38;;
56171;SDS011;42052;41.634;-0.946;2023-09-18T04:17:52;3.17;;;1.33;;
56171;SDS011;42052;41.634;-0.946;2023-09-18T04:20:18;2.25;;;1.45;;
56171;SDS011;42052;41.634;-0.946;2023-09-18T04:22:44;2.95;;;1.27;;
56171;SDS011;42052;41.634;-0.946;2023-09-18T04:25:15;2.88;;;1.27;;
56171;SDS011;42052;41.634;-0.946;2023-09-18T04:27:41;3.00;;;1.23;;
56171;SDS011;42052;41.634;-0.946;2023-09-18T04:30:07;3.30;;;1.33;;
56171;SDS011;42052;41.634;-0.946;2023-09-18T04:32:36;2.50;;;1.40;;
56171;SDS011;42052;41.634;-0.946;2023-09-18T04:35:03;3.47;;;1.40;;
56171;SDS011;42052;41.634;-0.946;2023-09-18T04:37:30;3.28;;;1.20;;
56171;SDS011;42052;41.634;-0.946;2023-09-18T04:39:57;4.45;;;1.35;;
56171;SDS011;42052;41.634;-0.946;2023-09-18T04:42:23;3.22;;;1.40;;
56171;SDS011;42052;41.634;-0.946;2023-09-18T04:44:48;2.33;;;1.33;;
56171;SDS011;42052;41.634;-0.946;2023-09-18T04:47:14;4.53;;;1.70;;
56171;SDS011;42052;41.634;-0.946;2023-09-18T04:49:41;2.65;;;1.35;;
56171;SDS011;42052;41.634;-0.946;2023-09-18T04:52:06;2.33;;;1.50;;
56171;SDS011;42052;41.634;-0.946;2023-09-18T04:54:32;4.60;;;1.50;;
56171;SDS011;42052;41.634;-0.946;2023-09-18T04:56:58;4.53;;;1.35;;
56171;SDS011;42052;41.634;-0.946;2023-09-18T04:59:24;3.13;;;1.30;;
56171;SDS011;42052;41.634;-0.946;2023-09-18T05:01:49;3.33;;;1.42;;
56171;SDS011;42052;41.634;-0.946;2023-09-18T05:04:15;5.03;;;1.13;;
56171;SDS011;42052;41.634;-0.946;2023-09-18T05:06:41;4.45;;;1.60;;
56171;SDS011;42052;41.634;-0.946;2023-09-18T05:09:07;10.55;;;2.83;;
56171;SDS011;42052;41.634;-0.946;2023-09-18T05:11:33;21.30;;;4.55;;
56171;SDS011;42052;41.634;-0.946;2023-09-18T05:13:59;28.40;;;5.55;;
56171;SDS011;42052;41.634;-0.946;2023-09-18T05:16:25;24.23;;;5.60;;
56171;SDS011;42052;41.634;-0.946;2023-09-18T05:18:50;23.55;;;5.88;;
56171;SDS011;42052;41.634;-0.946;2023-09-18T05:21:16;29.08;;;6.28;;
56171;SDS011;42052;41.634;-0.946;2023-09-18T05:23:47;32.13;;;5.70;;
56171;SDS011;42052;41.634;-0.946;2023-09-18T05:26:13;27.58;;;5.32;;
56171;SDS011;42052;41.634;-0.946;2023-09-18T05:28:40;23.40;;;5.78;;
56171;SDS011;42052;41.634;-0.946;2023-09-18T05:31:06;23.42;;;5.30;;
56171;SDS011;42052;41.634;-0.946;2023-09-18T05:33:31;22.73;;;5.18;;
56171;SDS011;42052;41.634;-0.946;2023-09-18T05:35:57;20.02;;;4.95;;
56171;SDS011;42052;41.634;-0.946;2023-09-18T05:38:23;20.45;;;4.88;;
56171;SDS011;42052;41.634;-0.946;2023-09-18T05:40:49;22.38;;;5.00;;
56171;SDS011;42052;41.634;-0.946;2023-09-18T05:43:14;18.23;;;4.85;;
56171;SDS011;42052;41.634;-0.946;2023-09-18T05:45:40;18.67;;;4.40;;
56171;SDS011;42052;41.634;-0.946;2023-09-18T05:48:06;14.48;;;4.53;;
56171;SDS011;42052;41.634;-0.946;2023-09-18T05:50:33;20.52;;;5.07;;
56171;SDS011;42052;41.634;-0.946;2023-09-18T05:53:00;19.27;;;4.82;;
56171;SDS011;42052;41.634;-0.946;2023-09-18T05:55:29;13.98;;;4.80;;
56171;SDS011;42052;41.634;-0.946;2023-09-18T05:57:56;16.05;;;4.28;;
56171;SDS011;42052;41.634;-0.946;2023-09-18T06:00:22;17.05;;;4.07;;
56171;SDS011;42052;41.634;-0.946;2023-09-18T06:02:49;15.43;;;4.60;;
56171;SDS011;42052;41.634;-0.946;2023-09-18T06:05:16;15.63;;;4.30;;
56171;SDS011;42052;41.634;-0.946;2023-09-18T06:07:42;16.10;;;4.38;;
56171;SDS011;42052;41.634;-0.946;2023-09-18T06:10:09;20.13;;;4.78;;
56171;SDS011;42052;41.634;-0.946;2023-09-18T06:12:37;14.35;;;4.13;;
56171;SDS011;42052;41.634;-0.946;2023-09-18T06:15:04;17.55;;;4.30;;
56171;SDS011;42052;41.634;-0.946;2023-09-18T06:17:40;16.35;;;4.05;;
56171;SDS011;42052;41.634;-0.946;2023-09-18T06:20:07;13.32;;;4.30;;
56171;SDS011;42052;41.634;-0.946;2023-09-18T06:22:41;11.38;;;3.97;;
56171;SDS011;42052;41.634;-0.946;2023-09-18T06:25:07;14.93;;;3.80;;
56171;SDS011;42052;41.634;-0.946;2023-09-18T06:27:35;13.80;;;4.32;;
56171;SDS011;42052;41.634;-0.946;2023-09-18T06:30:02;12.48;;;3.70;;
56171;SDS011;42052;41.634;-0.946;2023-09-18T06:32:28;12.88;;;3.42;;
56171;SDS011;42052;41.634;-0.946;2023-09-18T06:34:54;19.25;;;4.38;;
56171;SDS011;42052;41.634;-0.946;2023-09-18T06:37:22;11.77;;;3.88;;
56171;SDS011;42052;41.634;-0.946;2023-09-18T06:39:48;12.15;;;3.78;;
56171;SDS011;42052;41.634;-0.946;2023-09-18T06:42:14;12.10;;;3.83;;
56171;SDS011;42052;41.634;-0.946;2023-09-18T06:44:40;13.70;;;3.60;;
56171;SDS011;42052;41.634;-0.946;2023-09-18T06:47:06;11.35;;;3.47;;
56171;SDS011;42052;41.634;-0.946;2023-09-18T06:49:32;14.45;;;3.80;;
56171;SDS011;42052;41.634;-0.946;2023-09-18T06:51:57;12.88;;;3.70;;
56171;SDS011;42052;41.634;-0.946;2023-09-18T06:54:23;14.55;;;4.10;;
56171;SDS011;42052;41.634;-0.946;2023-09-18T06:56:49;13.70;;;3.88;;
56171;SDS011;42052;41.634;-0.946;2023-09-18T06:59:15;13.15;;;3.75;;
56171;SDS011;42052;41.634;-0.946;2023-09-18T07:01:46;11.38;;;3.53;;
56171;SDS011;42052;41.634;-0.946;2023-09-18T07:04:11;12.18;;;3.88;;
56171;SDS011;42052;41.634;-0.946;2023-09-18T07:06:37;12.35;;;3.42;;
56171;SDS011;42052;41.634;-0.946;2023-09-18T07:09:03;9.73;;;3.38;;
56171;SDS011;42052;41.634;-0.946;2023-09-18T07:11:31;9.82;;;3.45;;
56171;SDS011;42052;41.634;-0.946;2023-09-18T07:13:58;9.40;;;3.42;;
56171;SDS011;42052;41.634;-0.946;2023-09-18T07:16:24;10.88;;;3.20;;
56171;SDS011;42052;41.634;-0.946;2023-09-18T07:18:50;10.70;;;3.58;;
56171;SDS011;42052;41.634;-0.946;2023-09-18T07:21:16;10.15;;;3.65;;
56171;SDS011;42052;41.634;-0.946;2023-09-18T07:23:42;9.88;;;3.30;;
56171;SDS011;42052;41.634;-0.946;2023-09-18T07:26:10;10.30;;;3.40;;
56171;SDS011;42052;41.634;-0.946;2023-09-18T07:28:36;9.73;;;3.13;;
56171;SDS011;42052;41.634;-0.946;2023-09-18T07:31:06;9.48;;;3.03;;
56171;SDS011;42052;41.634;-0.946;2023-09-18T07:33:34;10.75;;;3.40;;
56171;SDS011;42052;41.634;-0.946;2023-09-18T07:35:59;9.57;;;2.88;;
56171;SDS011;42052;41.634;-0.946;2023-09-18T07:38:25;7.13;;;3.15;;
56171;SDS011;42052;41.634;-0.946;2023-09-18T07:40:52;9.25;;;3.25;;
56171;SDS011;42052;41.634;-0.946;2023-09-18T07:43:17;7.82;;;2.95;;
56171;SDS011;42052;41.634;-0.946;2023-09-18T07:45:43;10.30;;;2.92;;
56171;SDS011;42052;41.634;-0.946;2023-09-18T07:48:09;6.07;;;2.85;;
56171;SDS011;42052;41.634;-0.946;2023-09-18T07:50:35;8.25;;;3.15;;
56171;SDS011;42052;41.634;-0.946;2023-09-18T07:53:01;10.23;;;2.97;;
56171;SDS011;42052;41.634;-0.946;2023-09-18T07:55:27;9.07;;;2.88;;
56171;SDS011;42052;41.634;-0.946;2023-09-18T07:57:55;8.40;;;2.70;;
56171;SDS011;42052;41.634;-0.946;2023-09-18T08:00:21;8.68;;;2.78;;
56171;SDS011;42052;41.634;-0.946;2023-09-18T08:02:48;6.10;;;2.70;;
56171;SDS011;42052;41.634;-0.946;2023-09-18T08:05:15;9.13;;;2.90;;
56171;SDS011;42052;41.634;-0.946;2023-09-18T08:07:42;7.03;;;2.90;;
56171;SDS011;42052;41.634;-0.946;2023-09-18T08:10:09;6.43;;;2.55;;
56171;SDS011;42052;41.634;-0.946;2023-09-18T08:12:37;7.80;;;2.67;;
56171;SDS011;42052;41.634;-0.946;2023-09-18T08:15:03;5.70;;;2.40;;
56171;SDS011;42052;41.634;-0.946;2023-09-18T08:17:30;7.65;;;2.90;;
56171;SDS011;42052;41.634;-0.946;2023-09-18T08:19:56;7.40;;;2.60;;
56171;SDS011;42052;41.634;-0.946;2023-09-18T08:22:23;7.03;;;2.28;;
56171;SDS011;42052;41.634;-0.946;2023-09-18T08:24:49;6.70;;;2.50;;
56171;SDS011;42052;41.634;-0.946;2023-09-18T08:27:17;6.45;;;2.50;;
56171;SDS011;42052;41.634;-0.946;2023-09-18T08:29:44;10.15;;;2.75;;
56171;SDS011;42052;41.634;-0.946;2023-09-18T08:32:11;6.50;;;2.40;;
56171;SDS011;42052;41.634;-0.946;2023-09-18T08:34:36;8.07;;;2.80;;
56171;SDS011;42052;41.634;-0.946;2023-09-18T08:37:02;5.10;;;2.53;;
56171;SDS011;42052;41.634;-0.946;2023-09-18T08:39:29;7.40;;;2.38;;
56171;SDS011;42052;41.634;-0.946;2023-09-18T08:41:58;7.45;;;2.38;;
56171;SDS011;42052;41.634;-0.946;2023-09-18T08:44:27;4.78;;;2.25;;
56171;SDS011;42052;41.634;-0.946;2023-09-18T08:46:53;5.40;;;1.90;;
56171;SDS011;42052;41.634;-0.946;2023-09-18T08:49:21;7.43;;;2.35;;
56171;SDS011;42052;41.634;-0.946;2023-09-18T08:51:49;4.55;;;2.10;;
56171;SDS011;42052;41.634;-0.946;2023-09-18T08:54:16;5.80;;;2.28;;
56171;SDS011;42052;41.634;-0.946;2023-09-18T08:56:42;5.85;;;2.45;;
56171;SDS011;42052;41.634;-0.946;2023-09-18T08:59:08;6.20;;;2.30;;
56171;SDS011;42052;41.634;-0.946;2023-09-18T09:01:34;5.57;;;2.20;;
56171;SDS011;42052;41.634;-0.946;2023-09-18T09:04:00;5.10;;;2.20;;
56171;SDS011;42052;41.634;-0.946;2023-09-18T09:06:26;5.82;;;2.33;;
56171;SDS011;42052;41.634;-0.946;2023-09-18T09:08:52;4.63;;;1.92;;
56171;SDS011;42052;41.634;-0.946;2023-09-18T09:11:17;5.78;;;2.30;;
56171;SDS011;42052;41.634;-0.946;2023-09-18T09:13:45;4.43;;;2.10;;
56171;SDS011;42052;41.634;-0.946;2023-09-18T09:16:11;7.93;;;2.38;;
56171;SDS011;42052;41.634;-0.946;2023-09-18T09:18:46;3.83;;;1.90;;
56171;SDS011;42052;41.634;-0.946;2023-09-18T09:21:14;5.15;;;1.83;;
56171;SDS011;42052;41.634;-0.946;2023-09-18T09:23:51;5.85;;;2.10;;
56171;SDS011;42052;41.634;-0.946;2023-09-18T09:26:19;3.53;;;2.00;;
56171;SDS011;42052;41.634;-0.946;2023-09-18T09:28:46;4.38;;;1.88;;
56171;SDS011;42052;41.634;-0.946;2023-09-18T09:31:23;3.92;;;1.98;;
56171;SDS011;42052;41.634;-0.946;2023-09-18T09:33:53;4.43;;;2.05;;
56171;SDS011;42052;41.634;-0.946;2023-09-18T09:36:19;3.78;;;1.88;;
56171;SDS011;42052;41.634;-0.946;2023-09-18T09:38:46;3.38;;;1.70;;
56171;SDS011;42052;41.634;-0.946;2023-09-18T09:41:15;3.90;;;1.95;;
56171;SDS011;42052;41.634;-0.946;2023-09-18T09:43:42;4.38;;;2.00;;
56171;SDS011;42052;41.634;-0.946;2023-09-18T09:46:16;3.80;;;1.73;;
56171;SDS011;42052;41.634;-0.946;2023-09-18T09:49:02;4.07;;;1.88;;
56171;SDS011;42052;41.634;-0.946;2023-09-18T09:51:30;3.92;;;1.85;;
56171;SDS011;42052;41.634;-0.946;2023-09-18T09:53:57;4.28;;;1.73;;
56171;SDS011;42052;41.634;-0.946;2023-09-18T09:56:42;3.45;;;1.65;;
56171;SDS011;42052;41.634;-0.946;2023-09-18T10:01:48;3.78;;;1.77;;
56171;SDS011;42052;41.634;-0.946;2023-09-18T10:04:18;4.45;;;1.63;;
56171;SDS011;42052;41.634;-0.946;2023-09-18T10:06:47;3.85;;;1.88;;
56171;SDS011;42052;41.634;-0.946;2023-09-18T10:09:19;3.63;;;1.70;;
56171;SDS011;42052;41.634;-0.946;2023-09-18T10:11:54;4.63;;;1.83;;
56171;SDS011;42052;41.634;-0.946;2023-09-18T10:14:32;3.88;;;1.67;;
56171;SDS011;42052;41.634;-0.946;2023-09-18T10:17:18;5.38;;;1.80;;
56171;SDS011;42052;41.634;-0.946;2023-09-18T10:25:15;4.47;;;1.60;;
56171;SDS011;42052;41.634;-0.946;2023-09-18T10:27:48;2.50;;;1.48;;
56171;SDS011;42052;41.634;-0.946;2023-09-18T10:30:17;4.38;;;1.77;;
56171;SDS011;42052;41.634;-0.946;2023-09-18T10:32:45;3.38;;;1.60;;
56171;SDS011;42052;41.634;-0.946;2023-09-18T10:35:11;2.95;;;1.60;;
56171;SDS011;42052;41.634;-0.946;2023-09-18T10:37:38;3.70;;;1.45;;
56171;SDS011;42052;41.634;-0.946;2023-09-18T10:40:08;2.65;;;1.40;;
56171;SDS011;42052;41.634;-0.946;2023-09-18T10:42:35;3.42;;;1.50;;
56171;SDS011;42052;41.634;-0.946;2023-09-18T10:45:03;4.72;;;1.70;;
56171;SDS011;42052;41.634;-0.946;2023-09-18T10:47:31;2.45;;;1.50;;
56171;SDS011;42052;41.634;-0.946;2023-09-18T10:49:59;2.97;;;1.55;;
56171;SDS011;42052;41.634;-0.946;2023-09-18T10:52:26;2.83;;;1.55;;
56171;SDS011;42052;41.634;-0.946;2023-09-18T10:54:52;2.90;;;1.45;;
56171;SDS011;42052;41.634;-0.946;2023-09-18T10:57:18;2.70;;;1.50;;
56171;SDS011;42052;41.634;-0.946;2023-09-18T10:59:45;3.90;;;1.70;;
56171;SDS011;42052;41.634;-0.946;2023-09-18T11:02:13;3.35;;;1.30;;
56171;SDS011;42052;41.634;-0.946;2023-09-18T11:04:41;3.38;;;1.52;;
56171;SDS011;42052;41.634;-0.946;2023-09-18T11:07:08;3.75;;;1.30;;
56171;SDS011;42052;41.634;-0.946;2023-09-18T11:09:41;2.50;;;1.30;;
56171;SDS011;42052;41.634;-0.946;2023-09-18T11:12:11;2.28;;;1.30;;
56171;SDS011;42052;41.634;-0.946;2023-09-18T11:14:46;2.65;;;1.45;;
56171;SDS011;42052;41.634;-0.946;2023-09-18T11:17:31;1.70;;;1.20;;
56171;SDS011;42052;41.634;-0.946;2023-09-18T11:20:05;2.65;;;1.20;;
56171;SDS011;42052;41.634;-0.946;2023-09-18T11:22:55;2.67;;;1.50;;
56171;SDS011;42052;41.634;-0.946;2023-09-18T11:25:34;4.03;;;1.55;;
56171;SDS011;42052;41.634;-0.946;2023-09-18T11:28:02;2.20;;;1.15;;
56171;SDS011;42052;41.634;-0.946;2023-09-18T11:30:32;2.70;;;1.45;;
56171;SDS011;42052;41.634;-0.946;2023-09-18T11:33:03;2.88;;;1.40;;
56171;SDS011;42052;41.634;-0.946;2023-09-18T11:35:30;2.42;;;1.10;;
56171;SDS011;42052;41.634;-0.946;2023-09-18T11:38:03;2.28;;;1.35;;
56171;SDS011;42052;41.634;-0.946;2023-09-18T11:40:37;2.95;;;1.40;;
56171;SDS011;42052;41.634;-0.946;2023-09-18T11:43:27;2.08;;;1.38;;
56171;SDS011;42052;41.634;-0.946;2023-09-18T11:45:57;2.20;;;1.23;;
56171;SDS011;42052;41.634;-0.946;2023-09-18T11:48:25;3.33;;;1.30;;
56171;SDS011;42052;41.634;-0.946;2023-09-18T11:50:56;3.38;;;1.27;;
56171;SDS011;42052;41.634;-0.946;2023-09-18T11:53:23;3.10;;;1.27;;
56171;SDS011;42052;41.634;-0.946;2023-09-18T11:55:49;4.47;;;1.25;;
56171;SDS011;42052;41.634;-0.946;2023-09-18T11:58:15;2.88;;;1.13;;
56171;SDS011;42052;41.634;-0.946;2023-09-18T12:00:41;2.75;;;1.33;;
56171;SDS011;42052;41.634;-0.946;2023-09-18T12:03:20;3.33;;;1.30;;
56171;SDS011;42052;41.634;-0.946;2023-09-18T12:05:51;3.25;;;1.60;;
56171;SDS011;42052;41.634;-0.946;2023-09-18T12:08:22;2.13;;;1.20;;
56171;SDS011;42052;41.634;-0.946;2023-09-18T12:10:51;2.63;;;1.30;;
56171;SDS011;42052;41.634;-0.946;2023-09-18T12:13:20;4.65;;;1.20;;
56171;SDS011;42052;41.634;-0.946;2023-09-18T12:15:46;2.85;;;1.30;;
56171;SDS011;42052;41.634;-0.946;2023-09-18T12:18:14;2.10;;;1.10;;
56171;SDS011;42052;41.634;-0.946;2023-09-18T12:20:47;1.42;;;1.05;;
56171;SDS011;42052;41.634;-0.946;2023-09-18T12:23:14;2.53;;;1.20;;
56171;SDS011;42052;41.634;-0.946;2023-09-18T12:25:47;2.28;;;1.30;;
56171;SDS011;42052;41.634;-0.946;2023-09-18T12:28:15;2.97;;;1.33;;
56171;SDS011;42052;41.634;-0.946;2023-09-18T12:30:42;3.05;;;1.42;;
56171;SDS011;42052;41.634;-0.946;2023-09-18T12:33:11;2.55;;;1.30;;
56171;SDS011;42052;41.634;-0.946;2023-09-18T12:35:40;1.38;;;1.00;;
56171;SDS011;42052;41.634;-0.946;2023-09-18T12:38:15;2.55;;;1.27;;
56171;SDS011;42052;41.634;-0.946;2023-09-18T12:40:44;2.20;;;1.05;;
56171;SDS011;42052;41.634;-0.946;2023-09-18T12:43:12;2.13;;;1.23;;
56171;SDS011;42052;41.634;-0.946;2023-09-18T12:45:40;1.92;;;1.10;;
56171;SDS011;42052;41.634;-0.946;2023-09-18T12:48:07;1.70;;;1.10;;
56171;SDS011;42052;41.634;-0.946;2023-09-18T12:50:35;2.28;;;1.20;;
56171;SDS011;42052;41.634;-0.946;2023-09-18T12:53:11;2.88;;;1.40;;
56171;SDS011;42052;41.634;-0.946;2023-09-18T12:55:38;2.05;;;1.10;;
56171;SDS011;42052;41.634;-0.946;2023-09-18T12:58:06;2.45;;;1.25;;
56171;SDS011;42052;41.634;-0.946;2023-09-18T13:00:34;1.70;;;1.00;;
56171;SDS011;42052;41.634;-0.946;2023-09-18T13:03:01;1.95;;;1.05;;
56171;SDS011;42052;41.634;-0.946;2023-09-18T13:05:29;2.17;;;1.20;;
56171;SDS011;42052;41.634;-0.946;2023-09-18T13:08:00;2.85;;;1.17;;
56171;SDS011;42052;41.634;-0.946;2023-09-18T13:10:43;2.30;;;1.20;;
56171;SDS011;42052;41.634;-0.946;2023-09-18T13:13:18;2.47;;;1.13;;
56171;SDS011;42052;41.634;-0.946;2023-09-18T13:15:48;3.30;;;1.27;;
56171;SDS011;42052;41.634;-0.946;2023-09-18T13:18:15;2.90;;;1.10;;
56171;SDS011;42052;41.634;-0.946;2023-09-18T13:20:41;3.63;;;1.20;;
56171;SDS011;42052;41.634;-0.946;2023-09-18T13:23:08;2.33;;;1.00;;
56171;SDS011;42052;41.634;-0.946;2023-09-18T13:25:38;1.45;;;0.88;;
56171;SDS011;42052;41.634;-0.946;2023-09-18T13:28:08;2.38;;;1.15;;
56171;SDS011;42052;41.634;-0.946;2023-09-18T13:30:37;2.20;;;1.20;;
56171;SDS011;42052;41.634;-0.946;2023-09-18T13:33:08;2.50;;;1.00;;
56171;SDS011;42052;41.634;-0.946;2023-09-18T13:35:36;2.55;;;1.00;;
56171;SDS011;42052;41.634;-0.946;2023-09-18T13:38:03;2.80;;;1.30;;
56171;SDS011;42052;41.634;-0.946;2023-09-18T13:40:31;3.58;;;1.17;;
56171;SDS011;42052;41.634;-0.946;2023-09-18T13:42:58;1.63;;;0.98;;
56171;SDS011;42052;41.634;-0.946;2023-09-18T13:45:25;2.38;;;1.30;;
56171;SDS011;42052;41.634;-0.946;2023-09-18T13:47:51;1.75;;;1.00;;
56171;SDS011;42052;41.634;-0.946;2023-09-18T13:50:17;2.30;;;1.10;;
56171;SDS011;42052;41.634;-0.946;2023-09-18T13:52:43;1.92;;;1.08;;
56171;SDS011;42052;41.634;-0.946;2023-09-18T13:55:08;2.75;;;1.08;;
56171;SDS011;42052;41.634;-0.946;2023-09-18T13:57:35;2.67;;;1.30;;
56171;SDS011;42052;41.634;-0.946;2023-09-18T14:00:02;1.73;;;1.00;;
56171;SDS011;42052;41.634;-0.946;2023-09-18T14:02:32;2.00;;;1.10;;
56171;SDS011;42052;41.634;-0.946;2023-09-18T14:04:58;1.92;;;1.02;;
56171;SDS011;42052;41.634;-0.946;2023-09-18T14:07:24;1.80;;;1.08;;
56171;SDS011;42052;41.634;-0.946;2023-09-18T14:09:50;1.70;;;1.10;;
56171;SDS011;42052;41.634;-0.946;2023-09-18T14:12:16;1.77;;;1.02;;
56171;SDS011;42052;41.634;-0.946;2023-09-18T14:14:42;2.20;;;1.23;;
56171;SDS011;42052;41.634;-0.946;2023-09-18T14:17:09;2.13;;;1.10;;
56171;SDS011;42052;41.634;-0.946;2023-09-18T14:19:35;2.33;;;1.00;;
56171;SDS011;42052;41.634;-0.946;2023-09-18T14:22:05;1.67;;;1.02;;
56171;SDS011;42052;41.634;-0.946;2023-09-18T14:24:32;1.88;;;1.00;;
56171;SDS011;42052;41.634;-0.946;2023-09-18T14:27:03;1.55;;;1.10;;
56171;SDS011;42052;41.634;-0.946;2023-09-18T14:29:29;2.30;;;1.25;;
56171;SDS011;42052;41.634;-0.946;2023-09-18T14:32:01;4.00;;;1.00;;
56171;SDS011;42052;41.634;-0.946;2023-09-18T14:34:28;1.70;;;0.98;;
56171;SDS011;42052;41.634;-0.946;2023-09-18T14:36:55;2.28;;;1.20;;
56171;SDS011;42052;41.634;-0.946;2023-09-18T14:39:22;2.05;;;1.00;;
56171;SDS011;42052;41.634;-0.946;2023-09-18T14:41:47;1.45;;;0.90;;
56171;SDS011;42052;41.634;-0.946;2023-09-18T14:44:16;1.48;;;1.00;;
56171;SDS011;42052;41.634;-0.946;2023-09-18T14:46:42;1.73;;;1.00;;
56171;SDS011;42052;41.634;-0.946;2023-09-18T14:49:09;2.50;;;0.93;;